createdAt,value
2023-02-12T00:01:14.186Z,30.10
2023-02-12T00:03:36.979Z,24.73
2023-02-12T00:06:02.285Z,24.47
2023-02-12T00:08:23.843Z,24.80
2023-02-12T00:10:45.783Z,23.03
2023-02-12T00:13:07.421Z,24.70
2023-02-12T00:15:29.097Z,26.20
2023-02-12T00:17:50.787Z,24.50
2023-02-12T00:20:12.561Z,22.97
2023-02-12T00:22:34.327Z,24.13
2023-02-12T00:24:56.440Z,22.20
2023-02-12T00:27:18.118Z,21.53
2023-02-12T00:29:39.967Z,24.07
2023-02-12T00:32:01.670Z,26.40
2023-02-12T00:34:23.359Z,22.63
2023-02-12T00:36:45.214Z,22.70
2023-02-12T00:39:06.930Z,23.03
2023-02-12T00:41:28.769Z,21.17
2023-02-12T00:43:51.019Z,24.77
2023-02-12T00:46:13.288Z,26.03
2023-02-12T00:48:37.174Z,23.53
2023-02-12T00:50:59.831Z,24.10
2023-02-12T00:53:23.209Z,25.25
2023-02-12T00:55:45.168Z,23.33
2023-02-12T00:58:07.709Z,24.43
2023-02-12T01:00:29.719Z,22.10
2023-02-12T01:02:52.156Z,21.27
2023-02-12T01:05:13.890Z,23.17
2023-02-12T01:07:36.151Z,25.30
2023-02-12T01:09:57.727Z,22.77
2023-02-12T01:12:19.323Z,21.67
2023-02-12T01:14:41.569Z,22.83
2023-02-12T01:17:03.313Z,22.80
2023-02-12T01:19:24.956Z,24.83
2023-02-12T01:21:46.621Z,24.27
2023-02-12T01:24:08.403Z,24.20
2023-02-12T01:26:31.854Z,22.93
2023-02-12T01:29:01.419Z,24.75
2023-02-12T01:31:27.369Z,24.00
2023-02-12T01:33:52.039Z,26.03
2023-02-12T01:36:14.160Z,24.23
2023-02-12T01:38:35.874Z,23.57
2023-02-12T01:41:20.749Z,24.90
2023-02-12T01:43:43.255Z,25.08
2023-02-12T01:46:06.527Z,22.87
2023-02-12T01:48:36.468Z,24.40
2023-02-12T01:51:02.507Z,23.83
2023-02-12T01:53:31.467Z,23.63
2023-02-12T01:55:58.603Z,25.13
2023-02-12T01:58:21.291Z,26.80
2023-02-12T02:00:44.491Z,23.90
2023-02-12T02:03:06.671Z,24.37
2023-02-12T02:05:43.282Z,26.83
2023-02-12T02:08:05.236Z,24.00
2023-02-12T02:10:26.866Z,25.37
2023-02-12T02:13:07.674Z,25.13
2023-02-12T02:15:31.894Z,22.60
2023-02-12T02:18:08.609Z,24.48
2023-02-12T02:21:04.096Z,23.60
2023-02-12T02:23:59.782Z,22.65
2023-02-12T02:28:58.320Z,26.17
2023-02-12T02:31:42.786Z,22.63
2023-02-12T02:34:29.452Z,25.27
2023-02-12T02:37:09.525Z,21.07
2023-02-12T02:40:09.158Z,18.93
2023-02-12T02:43:03.271Z,18.40
2023-02-12T02:45:37.653Z,20.33
2023-02-12T02:48:17.611Z,21.70
2023-02-12T02:50:47.543Z,23.20
2023-02-12T02:53:17.456Z,22.37
2023-02-12T02:55:49.744Z,24.17
2023-02-12T02:58:28.993Z,23.60
2023-02-12T03:01:23.095Z,25.67
2023-02-12T03:04:21.190Z,23.83
2023-02-12T03:07:01.440Z,23.67
2023-02-12T03:09:40.263Z,23.60
2023-02-12T03:12:12.567Z,21.27
2023-02-12T03:14:42.938Z,22.87
2023-02-12T03:17:10.245Z,21.77
2023-02-12T03:19:38.556Z,21.17
2023-02-12T03:22:10.694Z,24.40
2023-02-12T03:24:49.939Z,21.90
2023-02-12T03:27:31.547Z,23.57
2023-02-12T03:29:53.603Z,23.23
2023-02-12T03:32:52.616Z,22.47
2023-02-12T03:35:41.891Z,20.83
2023-02-12T03:38:20.907Z,22.13
2023-02-12T03:40:59.308Z,23.97
2023-02-12T03:44:05.235Z,21.97
2023-02-12T03:46:52.799Z,23.10
2023-02-12T03:49:31.393Z,23.10
2023-02-12T03:51:53.872Z,20.77
2023-02-12T03:54:21.251Z,22.83
2023-02-12T03:56:52.535Z,22.03
2023-02-12T03:59:14.210Z,21.73
2023-02-12T04:01:36.725Z,23.43
2023-02-12T04:04:02.814Z,23.10
2023-02-12T04:06:28.878Z,21.50
2023-02-12T04:08:50.593Z,21.87
2023-02-12T04:11:28.927Z,23.13
2023-02-12T04:14:18.247Z,23.23
2023-02-12T04:17:01.202Z,21.13
2023-02-12T04:19:55.496Z,23.27
2023-02-12T04:22:42.005Z,22.10
2023-02-12T04:25:24.159Z,22.43
2023-02-12T04:28:08.726Z,22.40
2023-02-12T04:30:56.550Z,22.23
2023-02-12T04:33:25.423Z,20.53
2023-02-12T04:35:59.972Z,20.77
2023-02-12T04:38:36.512Z,22.92
2023-02-12T04:40:59.189Z,23.57
2023-02-12T04:43:36.457Z,21.80
2023-02-12T04:45:58.648Z,23.83
2023-02-12T04:48:20.441Z,21.90
2023-02-12T04:50:44.163Z,24.60
2023-02-12T04:53:06.427Z,22.63
2023-02-12T04:55:28.028Z,23.37
2023-02-12T04:57:49.688Z,24.83
2023-02-12T05:00:15.558Z,23.73
2023-02-12T05:02:37.278Z,24.90
2023-02-12T05:04:59.015Z,23.93
2023-02-12T05:07:20.560Z,22.87
2023-02-12T05:09:42.532Z,25.87
2023-02-12T05:12:04.354Z,25.07
2023-02-12T05:14:26.006Z,24.27
2023-02-12T05:16:47.566Z,21.67
2023-02-12T05:19:09.605Z,21.63
2023-02-12T05:21:31.290Z,25.80
2023-02-12T05:23:52.909Z,26.43
2023-02-12T05:26:21.078Z,23.83
2023-02-12T05:28:42.950Z,24.07
2023-02-12T05:31:08.675Z,24.60
2023-02-12T05:33:30.550Z,21.10
2023-02-12T05:35:52.656Z,26.13
2023-02-12T05:38:14.339Z,24.27
2023-02-12T05:40:36.274Z,28.83
2023-02-12T05:42:57.851Z,24.07
2023-02-12T05:45:19.468Z,25.17
2023-02-12T05:47:41.122Z,23.90
2023-02-12T05:50:02.761Z,22.47
2023-02-12T05:52:24.349Z,22.60
2023-02-12T05:54:50.279Z,21.87
2023-02-12T05:57:11.861Z,24.90
2023-02-12T05:59:33.799Z,25.37
2023-02-12T06:01:55.487Z,28.47
2023-02-12T06:04:27.718Z,26.47
2023-02-12T06:06:51.622Z,24.53
2023-02-12T06:09:14.522Z,24.80
2023-02-12T06:11:37.035Z,24.97
2023-02-12T06:13:58.647Z,24.00
2023-02-12T06:16:24.070Z,24.53
2023-02-12T06:18:45.710Z,25.33
2023-02-12T06:21:07.264Z,26.10
2023-02-12T06:23:28.979Z,24.77
2023-02-12T06:25:56.376Z,24.77
2023-02-12T06:28:18.304Z,27.00
2023-02-12T06:30:39.959Z,27.30
2023-02-12T06:33:01.757Z,24.03
2023-02-12T06:35:23.400Z,25.93
2023-02-12T06:37:45.218Z,24.67
2023-02-12T06:40:07.850Z,22.27
2023-02-12T06:42:29.457Z,21.97
2023-02-12T06:44:52.979Z,24.67
2023-02-12T06:47:14.777Z,22.17
2023-02-12T06:49:36.328Z,26.83
2023-02-12T06:51:57.961Z,24.10
2023-02-12T06:54:19.582Z,24.87
2023-02-12T06:56:41.164Z,25.83
2023-02-12T06:59:02.870Z,26.37
2023-02-12T07:01:28.648Z,24.57
2023-02-12T07:04:10.681Z,25.37
2023-02-12T07:06:35.944Z,25.70
2023-02-12T07:08:58.541Z,27.57
2023-02-12T07:11:27.180Z,25.67
2023-02-12T07:13:48.744Z,21.57
2023-02-12T07:16:15.181Z,24.80
2023-02-12T07:18:37.698Z,24.33
2023-02-12T07:20:59.293Z,26.80
2023-02-12T07:23:20.843Z,26.23
2023-02-12T07:25:42.476Z,28.30
2023-02-12T07:28:04.764Z,29.73
2023-02-12T07:30:26.395Z,28.27
2023-02-12T07:32:48.034Z,27.37
2023-02-12T07:35:09.666Z,27.23
2023-02-12T07:37:31.238Z,30.97
2023-02-12T07:39:52.918Z,28.60
2023-02-12T07:42:15.178Z,29.67
2023-02-12T07:44:43.395Z,28.60
2023-02-12T07:47:06.040Z,28.10
2023-02-12T07:49:27.713Z,27.70
2023-02-12T07:51:50.520Z,27.10
2023-02-12T07:54:13.165Z,26.90
2023-02-12T07:56:38.984Z,28.53
2023-02-12T07:59:05.190Z,29.73
2023-02-12T08:01:30.904Z,26.43
2023-02-12T08:03:53.097Z,29.80
2023-02-12T08:06:16.150Z,31.13
2023-02-12T08:08:38.931Z,32.67
2023-02-12T08:11:00.624Z,32.13
2023-02-12T08:13:22.251Z,34.77
2023-02-12T08:15:43.918Z,33.43
2023-02-12T08:18:05.617Z,31.70
2023-02-12T08:20:27.508Z,32.33
2023-02-12T08:22:49.175Z,32.53
2023-02-12T08:25:10.726Z,32.77
2023-02-12T08:27:32.397Z,35.47
2023-02-12T08:29:54.006Z,35.10
2023-02-12T08:32:17.089Z,35.50
2023-02-12T08:34:38.806Z,33.27
2023-02-12T08:37:01.313Z,33.07
2023-02-12T08:39:25.581Z,35.80
2023-02-12T08:41:47.941Z,35.70
2023-02-12T08:44:10.898Z,35.67
2023-02-12T08:46:36.375Z,32.70
2023-02-12T08:49:02.409Z,38.63
2023-02-12T08:51:31.697Z,39.13
2023-02-12T08:53:56.971Z,35.43
2023-02-12T08:56:19.571Z,38.40
2023-02-12T08:58:42.434Z,35.57
2023-02-12T09:01:09.033Z,37.80
2023-02-12T09:03:31.321Z,36.50
2023-02-12T09:05:53.206Z,38.93
2023-02-12T09:08:15.739Z,35.07
2023-02-12T09:10:43.668Z,33.20
2023-02-12T09:13:06.503Z,32.10
2023-02-12T09:15:28.089Z,34.73
2023-02-12T09:17:49.739Z,32.93
2023-02-12T09:20:12.056Z,36.60
2023-02-12T09:22:33.640Z,34.37
2023-02-12T09:24:55.248Z,32.90
2023-02-12T09:27:16.852Z,34.03
2023-02-12T09:29:38.403Z,34.80
2023-02-12T09:32:01.373Z,35.47
2023-02-12T09:34:23.067Z,33.17
2023-02-12T09:36:44.681Z,34.47
2023-02-12T09:39:06.318Z,36.20
2023-02-12T09:42:21.368Z,34.00
2023-02-12T09:45:19.328Z,33.33
2023-02-12T09:47:49.869Z,33.60
2023-02-12T09:50:39.836Z,32.33
2023-02-12T09:53:02.278Z,34.27
2023-02-12T09:55:30.751Z,33.13
2023-02-12T09:57:54.772Z,32.13
2023-02-12T10:00:31.174Z,38.50
2023-02-12T10:02:54.292Z,36.97
2023-02-12T10:05:39.469Z,36.97
2023-02-12T10:08:44.706Z,35.45
2023-02-12T10:11:40.561Z,36.25
2023-02-12T10:14:37.232Z,37.33
2023-02-12T10:17:37.470Z,36.83
2023-02-12T10:20:51.796Z,37.37
2023-02-12T10:23:35.877Z,35.83
2023-02-12T10:26:08.034Z,33.33
2023-02-12T10:28:39.330Z,36.93
2023-02-12T10:31:08.804Z,35.67
2023-02-12T10:33:41.146Z,34.37
2023-02-12T10:36:31.044Z,35.90
2023-02-12T10:39:01.355Z,35.03
2023-02-12T10:41:27.440Z,35.87
2023-02-12T10:43:49.179Z,31.47
2023-02-12T10:46:16.499Z,34.57
2023-02-12T10:48:43.913Z,32.30
2023-02-12T10:51:08.508Z,33.27
2023-02-12T10:53:38.620Z,36.00
2023-02-12T10:56:17.925Z,38.47
2023-02-12T10:59:00.347Z,38.27
2023-02-12T11:01:34.191Z,34.70
2023-02-12T11:03:59.108Z,40.27
2023-02-12T11:06:28.211Z,39.63
2023-02-12T11:08:50.621Z,36.83
2023-02-12T11:11:25.382Z,35.27
2023-02-12T11:13:58.403Z,35.65
2023-02-12T11:16:37.675Z,32.77
2023-02-12T11:19:07.184Z,38.23
2023-02-12T11:21:28.941Z,34.20
2023-02-12T11:23:50.511Z,34.83
2023-02-12T11:26:18.092Z,34.30
2023-02-12T11:29:00.078Z,26.73
2023-02-12T11:31:38.127Z,28.37
2023-02-12T11:34:20.272Z,35.03
2023-02-12T11:36:49.859Z,32.20
2023-02-12T11:39:33.146Z,29.57
2023-02-12T11:42:06.678Z,26.57
2023-02-12T11:44:40.278Z,28.97
2023-02-12T11:47:17.326Z,27.57
2023-02-12T11:49:49.028Z,28.10
2023-02-12T11:52:22.888Z,26.80
2023-02-12T11:54:51.059Z,28.80
2023-02-12T11:57:45.234Z,28.73
2023-02-12T12:00:22.379Z,28.33
2023-02-12T12:03:16.384Z,28.33
2023-02-12T12:05:47.152Z,30.67
2023-02-12T12:08:30.741Z,30.73
2023-02-12T12:11:18.050Z,30.27
2023-02-12T12:14:09.552Z,30.50
2023-02-12T12:17:08.558Z,28.87
2023-02-12T12:19:53.141Z,29.13
2023-02-12T12:22:17.777Z,28.58
2023-02-12T12:24:52.221Z,29.57
2023-02-12T12:27:57.043Z,26.50
2023-02-12T12:30:36.356Z,28.40
2023-02-12T12:33:03.525Z,30.10
2023-02-12T12:36:01.065Z,31.83
2023-02-12T12:38:52.616Z,29.23
2023-02-12T12:41:37.403Z,29.60
2023-02-12T12:44:38.523Z,29.58
2023-02-12T12:47:21.577Z,28.43
2023-02-12T12:50:00.412Z,27.07
2023-02-12T12:52:51.282Z,27.70
2023-02-12T12:55:44.294Z,25.27
2023-02-12T12:58:23.537Z,28.17
2023-02-12T13:01:37.093Z,26.57
2023-02-12T13:04:38.294Z,25.93
2023-02-12T13:07:02.748Z,28.00
2023-02-12T13:12:45.384Z,28.63
2023-02-12T13:15:12.976Z,28.57
2023-02-12T13:18:11.770Z,31.07
2023-02-12T13:20:51.960Z,31.97
2023-02-12T13:23:39.274Z,28.53
2023-02-12T13:26:25.040Z,27.17
2023-02-12T13:28:58.493Z,27.73
2023-02-12T13:31:34.502Z,29.70
2023-02-12T13:34:02.448Z,29.97
2023-02-12T13:36:24.381Z,27.63
2023-02-12T13:39:11.969Z,26.80
2023-02-12T13:41:36.045Z,29.17
2023-02-12T13:44:31.270Z,29.17
2023-02-12T13:47:14.538Z,32.22
2023-02-12T13:49:53.582Z,30.43
2023-02-12T13:52:32.275Z,28.33
2023-02-12T13:55:39.326Z,28.97
2023-02-12T13:58:32.240Z,29.60
2023-02-12T14:00:53.772Z,32.17
2023-02-12T14:03:15.830Z,29.97
2023-02-12T14:05:37.682Z,28.20
2023-02-12T14:08:05.468Z,31.57
2023-02-12T14:10:31.711Z,29.70
2023-02-12T14:12:59.433Z,31.57
2023-02-12T14:15:37.060Z,30.97
2023-02-12T14:18:23.426Z,36.37
2023-02-12T14:20:45.179Z,32.67
2023-02-12T14:23:28.982Z,33.80
2023-02-12T14:26:12.793Z,32.53
2023-02-12T14:29:04.148Z,33.20
2023-02-12T14:31:35.067Z,34.70
2023-02-12T14:34:06.053Z,36.13
2023-02-12T14:36:41.394Z,34.87
2023-02-12T14:39:23.321Z,33.73
2023-02-12T14:41:47.291Z,35.23
2023-02-12T14:44:18.041Z,34.67
2023-02-12T14:46:46.509Z,36.27
2023-02-12T14:49:21.115Z,36.40
2023-02-12T14:52:16.596Z,34.85
2023-02-12T14:55:00.450Z,36.95
2023-02-12T14:57:30.719Z,35.30
2023-02-12T15:00:16.375Z,34.43
2023-02-12T15:02:42.471Z,36.53
2023-02-12T15:05:38.192Z,34.40
2023-02-12T15:08:45.176Z,31.93
2023-02-12T15:11:55.410Z,32.77
2023-02-12T15:14:26.065Z,31.70
2023-02-12T15:16:59.815Z,33.53
2023-02-12T15:19:47.183Z,32.43
2023-02-12T15:22:44.172Z,33.50
2023-02-12T15:25:30.204Z,31.90
2023-02-12T15:28:01.735Z,34.40
2023-02-12T15:30:28.377Z,31.27
2023-02-12T15:32:51.125Z,33.13
2023-02-12T15:35:37.859Z,31.87
2023-02-12T15:38:01.231Z,34.40
2023-02-12T15:40:23.796Z,33.03
2023-02-12T15:43:02.787Z,33.83
2023-02-12T15:45:28.628Z,33.17
2023-02-12T15:48:11.926Z,32.53
2023-02-12T15:50:35.826Z,32.40
2023-02-12T15:52:58.951Z,31.20
2023-02-12T15:55:27.394Z,27.97
2023-02-12T15:57:52.485Z,31.90
2023-02-12T16:00:47.759Z,31.33
2023-02-12T16:03:25.318Z,33.95
2023-02-12T16:05:50.335Z,32.77
2023-02-12T16:08:18.747Z,31.58
2023-02-12T16:10:48.051Z,30.30
2023-02-12T16:13:32.304Z,32.50
2023-02-12T16:16:13.935Z,40.03
2023-02-12T16:18:35.735Z,41.63
2023-02-12T16:21:23.828Z,35.13
2023-02-12T16:23:51.599Z,31.30
2023-02-12T16:26:25.699Z,31.33
2023-02-12T16:28:50.706Z,29.52
2023-02-12T16:31:15.412Z,31.37
2023-02-12T16:33:40.072Z,29.83
2023-02-12T16:36:14.140Z,30.27
2023-02-12T16:38:49.052Z,30.65
2023-02-12T16:43:41.670Z,32.53
2023-02-12T16:46:06.237Z,32.00
2023-02-12T16:50:58.879Z,31.53
2023-02-12T16:53:48.386Z,30.60
2023-02-12T16:56:18.081Z,31.70
2023-02-12T16:58:39.687Z,35.20
2023-02-12T17:01:04.459Z,35.23
2023-02-12T17:03:26.376Z,34.87
2023-02-12T17:05:49.362Z,36.47
2023-02-12T17:08:22.786Z,38.07
2023-02-12T17:10:44.750Z,36.60
2023-02-12T17:13:06.475Z,40.67
2023-02-12T17:15:38.032Z,37.97
2023-02-12T17:17:59.723Z,41.77
2023-02-12T17:20:21.337Z,42.13
2023-02-12T17:22:52.602Z,34.13
2023-02-12T17:25:14.339Z,38.03
2023-02-12T17:27:38.127Z,42.93
2023-02-12T17:29:59.953Z,39.15
2023-02-12T17:32:24.517Z,29.63
2023-02-12T17:34:49.075Z,32.80
2023-02-12T17:37:10.955Z,43.20
2023-02-12T17:39:32.657Z,54.80
2023-02-12T17:41:54.240Z,42.23
2023-02-12T17:44:16.278Z,35.13
2023-02-12T17:46:39.089Z,40.47
2023-02-12T17:49:00.722Z,52.77
2023-02-12T17:51:23.478Z,38.20
2023-02-12T17:53:45.911Z,69.17
2023-02-12T17:56:17.966Z,42.10
2023-02-12T17:58:41.552Z,54.43
2023-02-12T18:01:09.406Z,78.85
2023-02-12T18:03:31.023Z,51.33
2023-02-12T18:05:52.846Z,47.53
2023-02-12T18:08:14.445Z,61.67
2023-02-12T18:10:44.536Z,50.17
2023-02-12T18:13:07.884Z,42.37
2023-02-12T18:15:29.583Z,60.63
2023-02-12T18:17:51.132Z,50.47
2023-02-12T18:20:13.940Z,37.37
2023-02-12T18:22:35.612Z,47.97
2023-02-12T18:24:57.621Z,48.80
2023-02-12T18:27:19.361Z,61.93
2023-02-12T18:29:41.755Z,63.47
2023-02-12T18:32:03.449Z,46.00
2023-02-12T18:34:25.423Z,43.10
2023-02-12T18:36:47.068Z,39.97
2023-02-12T18:39:08.687Z,38.27
2023-02-12T18:41:32.929Z,40.80
2023-02-12T18:43:54.827Z,44.28
2023-02-12T18:46:27.483Z,42.83
2023-02-12T18:48:50.450Z,47.40
2023-02-12T18:51:22.945Z,41.97
2023-02-12T18:53:46.299Z,50.67
2023-02-12T18:56:10.991Z,46.10
2023-02-12T18:58:33.622Z,43.10
2023-02-12T19:00:55.560Z,46.37
2023-02-12T19:03:17.595Z,43.60
2023-02-12T19:05:39.225Z,38.70
2023-02-12T19:08:00.881Z,37.70
2023-02-12T19:10:22.698Z,41.97
2023-02-12T19:12:44.348Z,47.20
2023-02-12T19:15:08.694Z,50.33
2023-02-12T19:17:30.321Z,41.72
2023-02-12T19:19:52.069Z,43.60
2023-02-12T19:22:13.653Z,42.63
2023-02-12T19:24:46.187Z,37.73
2023-02-12T19:27:09.379Z,42.80
2023-02-12T19:29:30.940Z,41.77
2023-02-12T19:31:52.679Z,44.67
2023-02-12T19:34:19.593Z,45.00
2023-02-12T19:36:42.129Z,50.43
2023-02-12T19:39:06.012Z,54.87
2023-02-12T19:41:30.557Z,46.78
2023-02-12T19:46:20.075Z,45.08
2023-02-12T19:51:05.546Z,52.40
2023-02-12T19:53:28.714Z,48.07
2023-02-12T19:55:50.505Z,47.67
2023-02-12T19:58:12.102Z,50.73
2023-02-12T20:00:33.727Z,53.23
2023-02-12T20:02:55.467Z,53.80
2023-02-12T20:05:17.198Z,48.77
2023-02-12T20:07:38.878Z,45.13
2023-02-12T20:10:00.572Z,44.27
2023-02-12T20:12:22.216Z,47.57
2023-02-12T20:14:44.490Z,62.00
2023-02-12T20:17:06.170Z,70.93
2023-02-12T20:19:30.978Z,57.90
2023-02-12T20:21:55.270Z,58.40
2023-02-12T20:24:16.991Z,59.58
2023-02-12T20:26:39.726Z,45.40
2023-02-12T20:29:04.911Z,51.57
2023-02-12T20:31:31.155Z,76.87
2023-02-12T20:33:59.948Z,72.17
2023-02-12T20:36:21.889Z,41.03
2023-02-12T20:38:44.759Z,62.00
2023-02-12T20:41:09.153Z,48.67
2023-02-12T20:43:32.611Z,54.40
2023-02-12T20:45:54.834Z,57.80
2023-02-12T20:48:16.386Z,51.73
2023-02-12T20:50:37.949Z,50.43
2023-02-12T20:52:59.690Z,44.83
2023-02-12T20:55:21.428Z,50.60
2023-02-12T20:57:43.090Z,53.17
2023-02-12T21:00:05.484Z,52.83
2023-02-12T21:02:27.725Z,47.17
2023-02-12T21:04:53.395Z,51.87
2023-02-12T21:07:15.275Z,50.30
2023-02-12T21:09:36.922Z,50.77
2023-02-12T21:11:59.323Z,52.73
2023-02-12T21:14:23.140Z,52.87
2023-02-12T21:16:45.756Z,46.70
2023-02-12T21:19:09.180Z,44.67
2023-02-12T21:21:35.253Z,46.30
2023-02-12T21:23:59.707Z,41.57
2023-02-12T21:28:46.706Z,42.97
2023-02-12T21:31:20.570Z,48.23
2023-02-12T21:33:45.374Z,42.20
2023-02-12T21:36:11.773Z,40.00
2023-02-12T21:38:39.658Z,44.47
2023-02-12T21:41:22.170Z,44.10
2023-02-12T21:43:48.666Z,48.40
2023-02-12T21:46:11.237Z,43.23
2023-02-12T21:48:33.958Z,49.27
2023-02-12T21:50:56.310Z,42.23
2023-02-12T21:53:17.981Z,43.87
2023-02-12T21:55:39.536Z,42.03
2023-02-12T21:58:01.177Z,45.83
2023-02-12T22:00:23.113Z,46.33
2023-02-12T22:02:44.784Z,41.07
2023-02-12T22:05:06.925Z,37.37
2023-02-12T22:07:30.081Z,44.70
2023-02-12T22:09:56.224Z,43.77
2023-02-12T22:12:17.906Z,41.97
2023-02-12T22:14:39.598Z,39.70
2023-02-12T22:17:01.154Z,40.90
2023-02-12T22:19:22.845Z,42.40
2023-02-12T22:21:44.619Z,41.10
2023-02-12T22:24:09.622Z,40.60
2023-02-12T22:26:32.725Z,42.40
2023-02-12T22:29:08.144Z,44.27
2023-02-12T22:31:34.411Z,40.60
2023-02-12T22:34:00.970Z,42.67
2023-02-12T22:36:25.000Z,45.43
2023-02-12T22:38:46.607Z,42.80
2023-02-12T22:41:10.268Z,41.47
2023-02-12T22:43:34.068Z,44.80
2023-02-12T22:45:55.895Z,46.47
2023-02-12T22:48:17.459Z,43.60
2023-02-12T22:50:40.226Z,43.53
2023-02-12T22:53:01.798Z,40.50
2023-02-12T22:55:23.370Z,45.37
2023-02-12T22:57:45.000Z,43.10
2023-02-12T23:00:08.328Z,44.53
2023-02-12T23:02:29.904Z,42.97
2023-02-12T23:04:51.496Z,41.60
2023-02-12T23:07:13.311Z,41.27
2023-02-12T23:09:34.891Z,43.97
2023-02-12T23:11:56.497Z,43.33
2023-02-12T23:14:18.911Z,42.23
2023-02-12T23:16:40.563Z,40.57
2023-02-12T23:19:02.761Z,39.90
2023-02-12T23:21:26.567Z,40.77
2023-02-12T23:23:48.197Z,41.97
2023-02-12T23:26:10.204Z,41.10
2023-02-12T23:28:32.226Z,40.70
2023-02-12T23:30:53.986Z,40.37
2023-02-12T23:33:15.848Z,63.17
2023-02-12T23:35:37.422Z,68.27
2023-02-12T23:37:59.044Z,55.00
2023-02-12T23:40:20.855Z,48.97
2023-02-12T23:42:42.422Z,65.17
2023-02-12T23:45:04.309Z,65.57
2023-02-12T23:47:26.006Z,65.10
2023-02-12T23:49:47.648Z,50.17
2023-02-12T23:52:09.229Z,43.90
2023-02-12T23:54:31.668Z,42.93
2023-02-12T23:56:53.224Z,46.00
2023-02-12T23:59:14.832Z,40.53
